PTI737 ZHHH-ZSQD
Flight info
| Callsign | PTI737 |
|---|---|
| Flight time | 1h 11m |
| Altitude | 41100 |
| Route | BIVIP7E BIVIP R343 HFE DCT IDVEL IDV91A |
| Aircraft | B737/M-SDE2E3FGHIRWXY/LB1 |
Departure
| Time | 2026-05-08 05:10 |
|---|---|
| Airport | Wuhan Tianhe International Airport (ZHHH) |
Arrival
| Time | 2026-05-08 06:22 |
|---|---|
| Airport | Qingdao Jiaodong International Airport (ZSQD) |
| Time | Latitude | Longitude | Altitude | Speed | Heading |
|---|---|---|---|---|---|
| 2026-05-08 04:27 | 30.77013 | 114.20009 | 104 ft | 0 kts | 222° |
| 2026-05-08 05:06 | 30.77027 | 114.20023 | 104 ft | 4 kts | 221° |
| 2026-05-08 05:06 | 30.77047 | 114.20044 | 102 ft | 4 kts | 221° |
| 2026-05-08 05:07 | 30.77066 | 114.20063 | 102 ft | 2 kts | 221° |
| 2026-05-08 05:07 | 30.77070 | 114.20068 | 102 ft | 0 kts | 221° |
| 2026-05-08 05:09 | 30.77078 | 114.20036 | 105 ft | 13 kts | 309° |
| 2026-05-08 05:09 | 30.77158 | 114.19921 | 103 ft | 19 kts | 309° |
| 2026-05-08 05:09 | 30.77154 | 114.19831 | 104 ft | 12 kts | 217° |
| 2026-05-08 05:09 | 30.77160 | 114.19735 | 103 ft | 22 kts | 309° |
| 2026-05-08 05:10 | 30.77278 | 114.19694 | 104 ft | 25 kts | 41° |
| 2026-05-08 05:10 | 30.78359 | 114.20790 | 236 ft | 160 kts | 40° |
| 2026-05-08 05:10 | 30.79141 | 114.21516 | 1416 ft | 133 kts | 38° |
| 2026-05-08 05:11 | 30.79893 | 114.22266 | 2119 ft | 152 kts | 43° |
| 2026-05-08 05:11 | 30.80771 | 114.23186 | 2583 ft | 191 kts | 44° |
| 2026-05-08 05:11 | 30.81862 | 114.24328 | 2881 ft | 231 kts | 43° |
| 2026-05-08 05:11 | 30.83138 | 114.25653 | 3458 ft | 254 kts | 43° |
| 2026-05-08 05:12 | 30.84459 | 114.27017 | 4664 ft | 250 kts | 43° |
| 2026-05-08 05:12 | 30.85767 | 114.28365 | 5728 ft | 255 kts | 42° |
| 2026-05-08 05:12 | 30.87109 | 114.29746 | 6754 ft | 260 kts | 42° |
| 2026-05-08 05:12 | 30.88473 | 114.31148 | 7818 ft | 264 kts | 41° |
| 2026-05-08 05:13 | 30.89866 | 114.32578 | 8880 ft | 270 kts | 40° |
| 2026-05-08 05:13 | 30.91293 | 114.34043 | 9955 ft | 277 kts | 39° |
| 2026-05-08 05:13 | 30.92755 | 114.35544 | 10940 ft | 283 kts | 39° |
| 2026-05-08 05:13 | 30.94245 | 114.37074 | 11922 ft | 289 kts | 40° |
| 2026-05-08 05:14 | 30.95777 | 114.38649 | 12865 ft | 298 kts | 40° |
| 2026-05-08 05:14 | 30.97350 | 114.40266 | 13857 ft | 305 kts | 40° |
| 2026-05-08 05:14 | 30.98969 | 114.41931 | 14718 ft | 315 kts | 40° |
| 2026-05-08 05:14 | 31.00626 | 114.43636 | 15503 ft | 321 kts | 39° |
| 2026-05-08 05:15 | 31.02300 | 114.45360 | 15976 ft | 323 kts | 39° |
| 2026-05-08 05:15 | 31.03877 | 114.47286 | 16737 ft | 338 kts | 56° |
| 2026-05-08 05:15 | 31.04738 | 114.49874 | 17588 ft | 350 kts | 81° |
| 2026-05-08 05:15 | 31.05054 | 114.52726 | 18469 ft | 359 kts | 84° |
| 2026-05-08 05:16 | 31.05326 | 114.55663 | 19189 ft | 369 kts | 84° |
| 2026-05-08 05:16 | 31.05598 | 114.58651 | 20087 ft | 371 kts | 84° |
| 2026-05-08 05:16 | 31.05885 | 114.61651 | 21029 ft | 374 kts | 83° |
| 2026-05-08 05:16 | 31.06189 | 114.64681 | 21893 ft | 379 kts | 83° |
| 2026-05-08 05:17 | 31.06508 | 114.67753 | 22731 ft | 384 kts | 83° |
| 2026-05-08 05:17 | 31.06838 | 114.70865 | 23580 ft | 389 kts | 83° |
| 2026-05-08 05:17 | 31.07176 | 114.74017 | 24315 ft | 394 kts | 82° |
| 2026-05-08 05:17 | 31.07522 | 114.77221 | 24977 ft | 401 kts | 82° |
| 2026-05-08 05:18 | 31.07872 | 114.80472 | 25609 ft | 408 kts | 82° |
| 2026-05-08 05:18 | 31.08229 | 114.83785 | 26254 ft | 415 kts | 82° |
| 2026-05-08 05:18 | 31.08591 | 114.87147 | 26904 ft | 421 kts | 82° |
| 2026-05-08 05:18 | 31.08956 | 114.90559 | 27535 ft | 428 kts | 82° |
| 2026-05-08 05:19 | 31.09326 | 114.94026 | 28166 ft | 434 kts | 82° |
| 2026-05-08 05:19 | 31.09701 | 114.97541 | 28782 ft | 440 kts | 82° |
| 2026-05-08 05:19 | 31.10080 | 115.01113 | 29389 ft | 446 kts | 81° |
| 2026-05-08 05:19 | 31.10457 | 115.04679 | 29955 ft | 452 kts | 81° |
| 2026-05-08 05:20 | 31.10845 | 115.08348 | 30463 ft | 459 kts | 81° |
| 2026-05-08 05:20 | 31.11237 | 115.12067 | 30935 ft | 464 kts | 81° |
| 2026-05-08 05:20 | 31.11631 | 115.15826 | 31461 ft | 469 kts | 81° |
| 2026-05-08 05:20 | 31.12026 | 115.19603 | 32050 ft | 470 kts | 81° |
| 2026-05-08 05:21 | 31.12423 | 115.23400 | 32539 ft | 474 kts | 81° |
| 2026-05-08 05:21 | 31.12873 | 115.27234 | 32901 ft | 480 kts | 77° |
| 2026-05-08 05:21 | 31.13732 | 115.31004 | 33248 ft | 481 kts | 66° |
| 2026-05-08 05:21 | 31.14900 | 115.34659 | 33715 ft | 482 kts | 64° |
| 2026-05-08 05:22 | 31.16131 | 115.38327 | 34031 ft | 488 kts | 64° |
| 2026-05-08 05:22 | 31.17383 | 115.42035 | 34315 ft | 494 kts | 64° |
| 2026-05-08 05:22 | 31.18633 | 115.45787 | 34651 ft | 497 kts | 64° |
| 2026-05-08 05:22 | 31.19871 | 115.49568 | 34992 ft | 500 kts | 64° |
| 2026-05-08 05:23 | 31.21105 | 115.53384 | 35317 ft | 504 kts | 65° |
| 2026-05-08 05:23 | 31.22339 | 115.57230 | 35626 ft | 508 kts | 65° |
| 2026-05-08 05:23 | 31.23578 | 115.61105 | 35909 ft | 511 kts | 65° |
| 2026-05-08 05:23 | 31.24827 | 115.65013 | 36173 ft | 515 kts | 65° |
| 2026-05-08 05:24 | 31.26085 | 115.68952 | 36450 ft | 519 kts | 65° |
| 2026-05-08 05:24 | 31.27352 | 115.72916 | 36698 ft | 522 kts | 65° |
| 2026-05-08 05:24 | 31.28626 | 115.76906 | 36938 ft | 525 kts | 64° |
| 2026-05-08 05:24 | 31.29906 | 115.80916 | 37186 ft | 527 kts | 65° |
| 2026-05-08 05:25 | 31.31195 | 115.84946 | 37443 ft | 530 kts | 65° |
| 2026-05-08 05:25 | 31.32489 | 115.88994 | 37674 ft | 533 kts | 64° |
| 2026-05-08 05:25 | 31.33805 | 115.93065 | 37903 ft | 536 kts | 64° |
| 2026-05-08 05:25 | 31.35137 | 115.97146 | 38121 ft | 539 kts | 64° |
| 2026-05-08 05:26 | 31.36480 | 116.01247 | 38355 ft | 541 kts | 64° |
| 2026-05-08 05:26 | 31.37825 | 116.05361 | 38707 ft | 540 kts | 64° |
| 2026-05-08 05:26 | 31.39159 | 116.09455 | 39103 ft | 538 kts | 64° |
| 2026-05-08 05:26 | 31.40488 | 116.13549 | 39356 ft | 539 kts | 64° |
| 2026-05-08 05:27 | 31.41827 | 116.17672 | 39330 ft | 546 kts | 64° |
| 2026-05-08 05:27 | 31.44545 | 116.26060 | 39317 ft | 554 kts | 64° |
| 2026-05-08 05:28 | 31.47259 | 116.34487 | 39308 ft | 552 kts | 64° |
| 2026-05-08 05:28 | 31.49960 | 116.42894 | 39310 ft | 551 kts | 64° |
| 2026-05-08 05:29 | 31.52656 | 116.51293 | 39303 ft | 550 kts | 64° |
| 2026-05-08 05:29 | 31.55340 | 116.59677 | 39339 ft | 549 kts | 64° |
| 2026-05-08 05:30 | 31.58017 | 116.68063 | 39314 ft | 549 kts | 64° |
| 2026-05-08 05:30 | 31.60686 | 116.76444 | 39307 ft | 548 kts | 64° |
| 2026-05-08 05:31 | 31.63344 | 116.84813 | 39312 ft | 547 kts | 64° |
| 2026-05-08 05:31 | 31.65994 | 116.93183 | 39299 ft | 546 kts | 64° |
| 2026-05-08 05:32 | 31.68634 | 117.01537 | 39309 ft | 546 kts | 64° |
| 2026-05-08 05:32 | 31.71236 | 117.09903 | 39324 ft | 547 kts | 65° |
| 2026-05-08 05:33 | 31.73827 | 117.18298 | 39310 ft | 546 kts | 65° |
| 2026-05-08 05:33 | 31.76696 | 117.26511 | 39294 ft | 536 kts | 52° |
| 2026-05-08 05:33 | 31.78754 | 117.30099 | 39313 ft | 525 kts | 43° |
| 2026-05-08 05:34 | 31.81164 | 117.33286 | 39318 ft | 518 kts | 34° |
| 2026-05-08 05:34 | 31.86806 | 117.38465 | 39345 ft | 510 kts | 25° |
| 2026-05-08 05:35 | 31.92587 | 117.43331 | 39308 ft | 512 kts | 25° |
| 2026-05-08 05:35 | 31.98363 | 117.48259 | 39307 ft | 513 kts | 26° |
| 2026-05-08 05:36 | 32.04111 | 117.53236 | 39301 ft | 513 kts | 26° |
| 2026-05-08 05:36 | 32.09839 | 117.58227 | 39315 ft | 512 kts | 26° |
| 2026-05-08 05:37 | 32.15563 | 117.63220 | 39303 ft | 511 kts | 26° |
| 2026-05-08 05:37 | 32.21280 | 117.68211 | 39304 ft | 511 kts | 26° |
| 2026-05-08 05:38 | 32.26995 | 117.73205 | 39347 ft | 510 kts | 26° |
| 2026-05-08 05:38 | 32.32705 | 117.78202 | 39313 ft | 511 kts | 26° |
| 2026-05-08 05:39 | 32.38413 | 117.83207 | 39295 ft | 511 kts | 26° |
| 2026-05-08 05:39 | 32.44111 | 117.88212 | 39310 ft | 510 kts | 26° |
| 2026-05-08 05:40 | 32.49812 | 117.93226 | 39313 ft | 511 kts | 26° |
| 2026-05-08 05:40 | 32.55513 | 117.98248 | 39309 ft | 511 kts | 26° |
| 2026-05-08 05:41 | 32.61216 | 118.03281 | 39300 ft | 511 kts | 26° |
| 2026-05-08 05:41 | 32.66914 | 118.08318 | 39331 ft | 511 kts | 26° |
| 2026-05-08 05:42 | 32.72613 | 118.13364 | 39314 ft | 511 kts | 26° |
| 2026-05-08 05:42 | 32.78314 | 118.18419 | 39301 ft | 511 kts | 26° |
| 2026-05-08 05:43 | 32.84010 | 118.23480 | 39307 ft | 511 kts | 26° |
| 2026-05-08 05:43 | 32.89706 | 118.28547 | 39321 ft | 512 kts | 27° |
| 2026-05-08 05:44 | 32.94445 | 118.32770 | 39311 ft | 512 kts | 27° |
| 2026-05-08 05:44 | 33.00142 | 118.37854 | 39297 ft | 512 kts | 27° |
| 2026-05-08 05:45 | 33.05832 | 118.42941 | 39303 ft | 511 kts | 27° |
| 2026-05-08 05:45 | 33.11517 | 118.48032 | 39304 ft | 511 kts | 27° |
| 2026-05-08 05:46 | 33.17199 | 118.53127 | 39307 ft | 511 kts | 27° |
| 2026-05-08 05:46 | 33.22882 | 118.58232 | 39305 ft | 511 kts | 27° |
| 2026-05-08 05:47 | 33.28566 | 118.63346 | 39313 ft | 512 kts | 27° |
| 2026-05-08 05:47 | 33.34249 | 118.68469 | 39316 ft | 512 kts | 27° |
| 2026-05-08 05:48 | 33.39931 | 118.73599 | 39304 ft | 512 kts | 27° |
| 2026-05-08 05:48 | 33.45611 | 118.78736 | 39325 ft | 512 kts | 27° |
| 2026-05-08 05:49 | 33.51293 | 118.83883 | 39306 ft | 512 kts | 27° |
| 2026-05-08 05:49 | 33.56964 | 118.89029 | 39302 ft | 513 kts | 27° |
| 2026-05-08 05:50 | 33.62649 | 118.94197 | 39301 ft | 513 kts | 27° |
| 2026-05-08 05:50 | 33.68341 | 118.99379 | 39306 ft | 514 kts | 27° |
| 2026-05-08 05:51 | 33.74031 | 119.04569 | 39302 ft | 514 kts | 27° |
| 2026-05-08 05:51 | 33.79725 | 119.09772 | 39296 ft | 514 kts | 27° |
| 2026-05-08 05:52 | 33.85399 | 119.14967 | 39311 ft | 513 kts | 27° |
| 2026-05-08 05:52 | 33.91054 | 119.20155 | 39287 ft | 509 kts | 27° |
| 2026-05-08 05:53 | 33.96665 | 119.25309 | 39280 ft | 507 kts | 27° |
| 2026-05-08 05:53 | 34.02273 | 119.30465 | 39329 ft | 506 kts | 27° |
| 2026-05-08 05:54 | 34.07840 | 119.35598 | 39293 ft | 502 kts | 27° |
| 2026-05-08 05:54 | 34.13371 | 119.40705 | 39280 ft | 499 kts | 27° |
| 2026-05-08 05:55 | 34.18871 | 119.45788 | 39309 ft | 497 kts | 27° |
| 2026-05-08 05:55 | 34.24357 | 119.50867 | 39288 ft | 496 kts | 27° |
| 2026-05-08 05:56 | 34.29827 | 119.55939 | 39289 ft | 495 kts | 27° |
| 2026-05-08 05:56 | 34.35254 | 119.60982 | 39285 ft | 495 kts | 27° |
| 2026-05-08 05:57 | 34.40719 | 119.66068 | 39291 ft | 496 kts | 27° |
| 2026-05-08 05:57 | 34.46184 | 119.71163 | 39287 ft | 496 kts | 27° |
| 2026-05-08 05:58 | 34.51652 | 119.76269 | 39285 ft | 496 kts | 27° |
| 2026-05-08 05:58 | 34.57159 | 119.81421 | 39307 ft | 497 kts | 27° |
| 2026-05-08 05:59 | 34.62607 | 119.86527 | 39293 ft | 498 kts | 27° |
| 2026-05-08 05:59 | 34.68084 | 119.91670 | 39284 ft | 498 kts | 27° |
| 2026-05-08 06:00 | 34.73560 | 119.96820 | 39312 ft | 498 kts | 27° |
| 2026-05-08 06:00 | 34.79078 | 120.02018 | 39286 ft | 498 kts | 26° |
| 2026-05-08 06:01 | 34.84517 | 120.07151 | 39289 ft | 498 kts | 27° |
| 2026-05-08 06:01 | 34.89993 | 120.12328 | 39276 ft | 498 kts | 27° |
| 2026-05-08 06:02 | 34.95487 | 120.17526 | 38775 ft | 501 kts | 27° |
| 2026-05-08 06:02 | 34.98259 | 120.20158 | 37919 ft | 499 kts | 27° |
| 2026-05-08 06:02 | 35.00963 | 120.22725 | 37204 ft | 497 kts | 27° |
| 2026-05-08 06:02 | 35.03690 | 120.25318 | 36431 ft | 497 kts | 27° |
| 2026-05-08 06:03 | 35.06415 | 120.27908 | 35661 ft | 497 kts | 27° |
| 2026-05-08 06:03 | 35.09152 | 120.30510 | 34798 ft | 500 kts | 28° |
| 2026-05-08 06:03 | 35.11908 | 120.33128 | 33784 ft | 505 kts | 28° |
| 2026-05-08 06:03 | 35.14694 | 120.35778 | 32721 ft | 509 kts | 29° |
| 2026-05-08 06:04 | 35.17488 | 120.38444 | 31667 ft | 512 kts | 30° |
| 2026-05-08 06:04 | 35.20306 | 120.41137 | 30531 ft | 516 kts | 30° |
| 2026-05-08 06:04 | 35.23147 | 120.43854 | 29126 ft | 521 kts | 31° |
| 2026-05-08 06:04 | 35.26011 | 120.46598 | 27746 ft | 523 kts | 31° |
| 2026-05-08 06:05 | 35.28835 | 120.49313 | 26476 ft | 509 kts | 31° |
| 2026-05-08 06:05 | 35.31591 | 120.51963 | 25261 ft | 497 kts | 31° |
| 2026-05-08 06:05 | 35.34349 | 120.54339 | 24177 ft | 471 kts | 20° |
| 2026-05-08 06:05 | 35.37325 | 120.55591 | 23153 ft | 437 kts | 3° |
| 2026-05-08 06:06 | 35.40292 | 120.55915 | 22083 ft | 421 kts | 353° |
| 2026-05-08 06:06 | 35.43163 | 120.55599 | 21033 ft | 408 kts | 343° |
| 2026-05-08 06:06 | 35.45829 | 120.54596 | 20070 ft | 396 kts | 334° |
| 2026-05-08 06:06 | 35.48370 | 120.53341 | 19093 ft | 392 kts | 334° |
| 2026-05-08 06:07 | 35.50882 | 120.52085 | 18081 ft | 388 kts | 334° |
| 2026-05-08 06:07 | 35.53371 | 120.50845 | 17032 ft | 384 kts | 335° |
| 2026-05-08 06:07 | 35.55831 | 120.49628 | 16050 ft | 379 kts | 335° |
| 2026-05-08 06:07 | 35.58263 | 120.48432 | 15104 ft | 374 kts | 336° |
| 2026-05-08 06:08 | 35.60663 | 120.47256 | 14169 ft | 369 kts | 337° |
| 2026-05-08 06:08 | 35.63035 | 120.46098 | 13184 ft | 365 kts | 337° |
| 2026-05-08 06:08 | 35.65380 | 120.44953 | 12224 ft | 361 kts | 338° |
| 2026-05-08 06:08 | 35.67701 | 120.43821 | 11318 ft | 357 kts | 338° |
| 2026-05-08 06:09 | 35.69976 | 120.42711 | 10905 ft | 341 kts | 338° |
| 2026-05-08 06:09 | 35.72116 | 120.41667 | 10734 ft | 321 kts | 338° |
| 2026-05-08 06:09 | 35.74128 | 120.40685 | 10595 ft | 302 kts | 338° |
| 2026-05-08 06:09 | 35.76037 | 120.39751 | 10356 ft | 289 kts | 338° |
| 2026-05-08 06:10 | 35.77862 | 120.38859 | 10206 ft | 275 kts | 338° |
| 2026-05-08 06:10 | 35.79599 | 120.38008 | 10083 ft | 262 kts | 338° |
| 2026-05-08 06:10 | 35.81255 | 120.37197 | 9883 ft | 252 kts | 338° |
| 2026-05-08 06:10 | 35.82881 | 120.36401 | 9538 ft | 249 kts | 338° |
| 2026-05-08 06:11 | 35.84485 | 120.35614 | 9163 ft | 247 kts | 337° |
| 2026-05-08 06:11 | 35.86079 | 120.34832 | 8798 ft | 246 kts | 337° |
| 2026-05-08 06:11 | 35.87662 | 120.34056 | 8441 ft | 244 kts | 337° |
| 2026-05-08 06:11 | 35.89231 | 120.33286 | 8090 ft | 242 kts | 337° |
| 2026-05-08 06:12 | 35.90796 | 120.32517 | 7744 ft | 241 kts | 336° |
| 2026-05-08 06:12 | 35.92350 | 120.31754 | 7405 ft | 240 kts | 336° |
| 2026-05-08 06:12 | 35.93863 | 120.31012 | 7302 ft | 229 kts | 336° |
| 2026-05-08 06:12 | 35.95312 | 120.30300 | 7180 ft | 219 kts | 336° |
| 2026-05-08 06:13 | 35.96702 | 120.29618 | 7073 ft | 211 kts | 336° |
| 2026-05-08 06:13 | 35.97996 | 120.28855 | 6863 ft | 204 kts | 320° |
| 2026-05-08 06:13 | 35.99027 | 120.27684 | 6682 ft | 201 kts | 316° |
| 2026-05-08 06:13 | 36.00054 | 120.26505 | 6420 ft | 201 kts | 316° |
| 2026-05-08 06:14 | 36.01082 | 120.25337 | 6154 ft | 201 kts | 316° |
| 2026-05-08 06:14 | 36.02104 | 120.24180 | 5992 ft | 195 kts | 316° |
| 2026-05-08 06:14 | 36.03096 | 120.23058 | 5890 ft | 194 kts | 316° |
| 2026-05-08 06:14 | 36.04100 | 120.21923 | 5829 ft | 198 kts | 316° |
| 2026-05-08 06:15 | 36.05117 | 120.20773 | 5886 ft | 199 kts | 316° |
| 2026-05-08 06:15 | 36.06157 | 120.19606 | 5675 ft | 203 kts | 319° |
| 2026-05-08 06:15 | 36.07435 | 120.18851 | 5434 ft | 207 kts | 342° |
| 2026-05-08 06:15 | 36.08814 | 120.18355 | 5150 ft | 206 kts | 339° |
| 2026-05-08 06:16 | 36.10171 | 120.17802 | 4878 ft | 206 kts | 339° |
| 2026-05-08 06:16 | 36.11530 | 120.17254 | 4603 ft | 205 kts | 339° |
| 2026-05-08 06:16 | 36.12892 | 120.16713 | 4323 ft | 205 kts | 339° |
| 2026-05-08 06:16 | 36.14251 | 120.16176 | 4047 ft | 204 kts | 339° |
| 2026-05-08 06:17 | 36.16870 | 120.15145 | 3512 ft | 186 kts | 339° |
| 2026-05-08 06:17 | 36.18044 | 120.14684 | 3287 ft | 168 kts | 339° |
| 2026-05-08 06:17 | 36.19103 | 120.14267 | 3062 ft | 153 kts | 339° |
| 2026-05-08 06:18 | 36.20098 | 120.13874 | 2875 ft | 149 kts | 339° |
| 2026-05-08 06:18 | 36.21081 | 120.13485 | 2685 ft | 148 kts | 339° |
| 2026-05-08 06:18 | 36.22069 | 120.13094 | 2502 ft | 151 kts | 339° |
| 2026-05-08 06:18 | 36.23074 | 120.12696 | 2312 ft | 148 kts | 339° |
| 2026-05-08 06:19 | 36.24029 | 120.12320 | 2112 ft | 142 kts | 338° |
| 2026-05-08 06:19 | 36.24969 | 120.11952 | 1890 ft | 141 kts | 338° |
| 2026-05-08 06:19 | 36.25918 | 120.11577 | 1722 ft | 144 kts | 339° |
| 2026-05-08 06:19 | 36.26852 | 120.11210 | 1506 ft | 136 kts | 337° |
| 2026-05-08 06:20 | 36.27712 | 120.10867 | 1202 ft | 126 kts | 338° |
| 2026-05-08 06:20 | 36.28520 | 120.10547 | 975 ft | 120 kts | 337° |
| 2026-05-08 06:20 | 36.29405 | 120.10169 | 961 ft | 139 kts | 338° |
| 2026-05-08 06:20 | 36.30281 | 120.09855 | 843 ft | 130 kts | 340° |
| 2026-05-08 06:21 | 36.31157 | 120.09516 | 722 ft | 133 kts | 339° |
| 2026-05-08 06:21 | 36.32036 | 120.09181 | 523 ft | 129 kts | 338° |
| 2026-05-08 06:21 | 36.32854 | 120.08850 | 280 ft | 118 kts | 337° |
| 2026-05-08 06:21 | 36.33624 | 120.08539 | 144 ft | 117 kts | 339° |
| 2026-05-08 06:22 | 36.34418 | 120.08222 | 43 ft | 119 kts | 340° |
| 2026-05-08 06:22 | 36.35110 | 120.07944 | 34 ft | 85 kts | 343° |
| 2026-05-08 06:22 | 36.35540 | 120.07781 | 35 ft | 48 kts | 342° |
| 2026-05-08 06:22 | 36.35787 | 120.07698 | 35 ft | 31 kts | 353° |
| 2026-05-08 06:23 | 36.35994 | 120.07710 | 37 ft | 24 kts | 8° |
| 2026-05-08 06:23 | 36.36087 | 120.07727 | 37 ft | 8 kts | 8° |
| 2026-05-08 06:23 | 36.36139 | 120.07737 | 36 ft | 8 kts | 8° |
| 2026-05-08 06:23 | 36.36224 | 120.07731 | 36 ft | 17 kts | 351° |
| 2026-05-08 06:24 | 36.36342 | 120.07685 | 37 ft | 19 kts | 341° |
| 2026-05-08 06:24 | 36.36469 | 120.07634 | 37 ft | 19 kts | 342° |
| 2026-05-08 06:24 | 36.36647 | 120.07565 | 36 ft | 32 kts | 342° |
| 2026-05-08 06:24 | 36.36855 | 120.07484 | 37 ft | 31 kts | 342° |
| 2026-05-08 06:25 | 36.36989 | 120.07527 | 37 ft | 20 kts | 70° |
| 2026-05-08 06:25 | 36.37041 | 120.07619 | 37 ft | 3 kts | 345° |
| 2026-05-08 06:25 | 36.37062 | 120.07612 | 37 ft | 3 kts | 343° |
| 2026-05-08 06:25 | 36.37072 | 120.07608 | 37 ft | 0 kts | 343° |